sensor_id;sensor_type;location;lat;lon;timestamp;P1;durP1;ratioP1;P2;durP2;ratioP2
3589;SDS011;1809;48.470;9.226;2022-07-05T00:02:20;4.43;;;4.13;;
3589;SDS011;1809;48.470;9.226;2022-07-05T00:04:46;4.13;;;3.80;;
3589;SDS011;1809;48.470;9.226;2022-07-05T00:07:16;4.70;;;4.40;;
3589;SDS011;1809;48.470;9.226;2022-07-05T00:09:44;4.20;;;4.00;;
3589;SDS011;1809;48.470;9.226;2022-07-05T00:12:11;4.67;;;4.10;;
3589;SDS011;1809;48.470;9.226;2022-07-05T00:14:41;4.57;;;4.27;;
3589;SDS011;1809;48.470;9.226;2022-07-05T00:17:08;6.70;;;4.83;;
3589;SDS011;1809;48.470;9.226;2022-07-05T00:19:33;4.73;;;4.33;;
3589;SDS011;1809;48.470;9.226;2022-07-05T00:21:59;4.50;;;4.20;;
3589;SDS011;1809;48.470;9.226;2022-07-05T00:24:26;4.93;;;4.17;;
3589;SDS011;1809;48.470;9.226;2022-07-05T00:26:52;4.83;;;4.37;;
3589;SDS011;1809;48.470;9.226;2022-07-05T00:29:17;5.40;;;4.90;;
3589;SDS011;1809;48.470;9.226;2022-07-05T00:31:43;4.40;;;4.20;;
3589;SDS011;1809;48.470;9.226;2022-07-05T00:34:09;5.17;;;4.87;;
3589;SDS011;1809;48.470;9.226;2022-07-05T00:36:35;4.63;;;4.33;;
3589;SDS011;1809;48.470;9.226;2022-07-05T00:39:01;4.13;;;3.77;;
3589;SDS011;1809;48.470;9.226;2022-07-05T00:41:27;6.53;;;4.70;;
3589;SDS011;1809;48.470;9.226;2022-07-05T00:43:54;5.67;;;4.67;;
3589;SDS011;1809;48.470;9.226;2022-07-05T00:46:22;4.10;;;3.90;;
3589;SDS011;1809;48.470;9.226;2022-07-05T00:48:48;7.00;;;4.80;;
3589;SDS011;1809;48.470;9.226;2022-07-05T00:51:16;4.50;;;4.10;;
3589;SDS011;1809;48.470;9.226;2022-07-05T00:53:42;4.67;;;4.37;;
3589;SDS011;1809;48.470;9.226;2022-07-05T00:56:11;5.43;;;5.03;;
3589;SDS011;1809;48.470;9.226;2022-07-05T00:58:37;4.40;;;4.10;;
3589;SDS011;1809;48.470;9.226;2022-07-05T01:01:03;6.60;;;3.90;;
3589;SDS011;1809;48.470;9.226;2022-07-05T01:03:31;4.60;;;4.30;;
3589;SDS011;1809;48.470;9.226;2022-07-05T01:05:58;5.03;;;4.57;;
3589;SDS011;1809;48.470;9.226;2022-07-05T01:08:26;4.60;;;4.20;;
3589;SDS011;1809;48.470;9.226;2022-07-05T01:10:52;6.83;;;4.80;;
3589;SDS011;1809;48.470;9.226;2022-07-05T01:13:22;5.07;;;4.67;;
3589;SDS011;1809;48.470;9.226;2022-07-05T01:15:48;6.13;;;4.67;;
3589;SDS011;1809;48.470;9.226;2022-07-05T01:18:14;4.87;;;4.40;;
3589;SDS011;1809;48.470;9.226;2022-07-05T01:20:41;4.33;;;4.03;;
3589;SDS011;1809;48.470;9.226;2022-07-05T01:23:07;4.67;;;4.27;;
3589;SDS011;1809;48.470;9.226;2022-07-05T01:25:33;4.77;;;3.87;;
3589;SDS011;1809;48.470;9.226;2022-07-05T01:27:59;5.27;;;4.47;;
3589;SDS011;1809;48.470;9.226;2022-07-05T01:30:25;3.77;;;3.57;;
3589;SDS011;1809;48.470;9.226;2022-07-05T01:32:50;5.57;;;5.10;;
3589;SDS011;1809;48.470;9.226;2022-07-05T01:35:16;5.30;;;4.90;;
3589;SDS011;1809;48.470;9.226;2022-07-05T01:37:46;5.17;;;4.87;;
3589;SDS011;1809;48.470;9.226;2022-07-05T01:40:12;4.73;;;4.37;;
3589;SDS011;1809;48.470;9.226;2022-07-05T01:42:39;5.47;;;4.73;;
3589;SDS011;1809;48.470;9.226;2022-07-05T01:45:04;4.67;;;4.33;;
3589;SDS011;1809;48.470;9.226;2022-07-05T01:47:31;5.10;;;4.60;;
3589;SDS011;1809;48.470;9.226;2022-07-05T01:50:00;5.10;;;4.77;;
3589;SDS011;1809;48.470;9.226;2022-07-05T01:52:29;4.80;;;4.50;;
3589;SDS011;1809;48.470;9.226;2022-07-05T01:54:57;4.87;;;4.57;;
3589;SDS011;1809;48.470;9.226;2022-07-05T01:57:23;4.97;;;4.57;;
3589;SDS011;1809;48.470;9.226;2022-07-05T01:59:49;5.53;;;4.40;;
3589;SDS011;1809;48.470;9.226;2022-07-05T02:02:14;5.07;;;4.77;;
3589;SDS011;1809;48.470;9.226;2022-07-05T02:04:39;4.93;;;4.50;;
3589;SDS011;1809;48.470;9.226;2022-07-05T02:07:06;5.67;;;5.17;;
3589;SDS011;1809;48.470;9.226;2022-07-05T02:09:34;4.57;;;4.37;;
3589;SDS011;1809;48.470;9.226;2022-07-05T02:12:01;9.87;;;5.10;;
3589;SDS011;1809;48.470;9.226;2022-07-05T02:14:27;4.93;;;4.47;;
3589;SDS011;1809;48.470;9.226;2022-07-05T02:16:53;4.73;;;4.33;;
3589;SDS011;1809;48.470;9.226;2022-07-05T02:19:19;5.00;;;4.70;;
3589;SDS011;1809;48.470;9.226;2022-07-05T02:21:45;4.80;;;4.30;;
3589;SDS011;1809;48.470;9.226;2022-07-05T02:24:10;8.27;;;4.60;;
3589;SDS011;1809;48.470;9.226;2022-07-05T02:26:36;4.53;;;4.23;;
3589;SDS011;1809;48.470;9.226;2022-07-05T02:29:02;4.70;;;4.40;;
3589;SDS011;1809;48.470;9.226;2022-07-05T02:31:29;5.40;;;5.10;;
3589;SDS011;1809;48.470;9.226;2022-07-05T02:33:56;7.87;;;4.03;;
3589;SDS011;1809;48.470;9.226;2022-07-05T02:36:22;5.70;;;5.07;;
3589;SDS011;1809;48.470;9.226;2022-07-05T02:38:47;4.30;;;3.97;;
3589;SDS011;1809;48.470;9.226;2022-07-05T02:41:13;8.83;;;4.03;;
3589;SDS011;1809;48.470;9.226;2022-07-05T02:43:39;4.73;;;4.43;;
3589;SDS011;1809;48.470;9.226;2022-07-05T02:46:05;4.93;;;4.53;;
3589;SDS011;1809;48.470;9.226;2022-07-05T02:48:34;4.47;;;4.07;;
3589;SDS011;1809;48.470;9.226;2022-07-05T02:51:02;4.30;;;4.00;;
3589;SDS011;1809;48.470;9.226;2022-07-05T02:53:31;5.43;;;4.43;;
3589;SDS011;1809;48.470;9.226;2022-07-05T02:55:57;4.50;;;4.17;;
3589;SDS011;1809;48.470;9.226;2022-07-05T02:58:22;7.37;;;4.67;;
3589;SDS011;1809;48.470;9.226;2022-07-05T03:00:48;10.30;;;4.50;;
3589;SDS011;1809;48.470;9.226;2022-07-05T03:03:17;7.23;;;4.80;;
3589;SDS011;1809;48.470;9.226;2022-07-05T03:05:48;16.23;;;5.53;;
3589;SDS011;1809;48.470;9.226;2022-07-05T03:08:14;5.97;;;5.57;;
3589;SDS011;1809;48.470;9.226;2022-07-05T03:10:43;8.40;;;5.50;;
3589;SDS011;1809;48.470;9.226;2022-07-05T03:13:14;5.60;;;5.20;;
3589;SDS011;1809;48.470;9.226;2022-07-05T03:15:40;4.70;;;4.40;;
3589;SDS011;1809;48.470;9.226;2022-07-05T03:18:05;5.73;;;5.23;;
3589;SDS011;1809;48.470;9.226;2022-07-05T03:20:31;5.07;;;4.87;;
3589;SDS011;1809;48.470;9.226;2022-07-05T03:22:56;5.13;;;4.73;;
3589;SDS011;1809;48.470;9.226;2022-07-05T03:25:22;4.57;;;4.37;;
3589;SDS011;1809;48.470;9.226;2022-07-05T03:27:48;5.30;;;4.90;;
3589;SDS011;1809;48.470;9.226;2022-07-05T03:30:14;4.30;;;4.10;;
3589;SDS011;1809;48.470;9.226;2022-07-05T03:32:40;4.50;;;4.20;;
3589;SDS011;1809;48.470;9.226;2022-07-05T03:35:06;4.80;;;4.40;;
3589;SDS011;1809;48.470;9.226;2022-07-05T03:37:32;7.13;;;5.50;;
3589;SDS011;1809;48.470;9.226;2022-07-05T03:40:00;4.40;;;4.07;;
3589;SDS011;1809;48.470;9.226;2022-07-05T03:42:26;5.83;;;5.00;;
3589;SDS011;1809;48.470;9.226;2022-07-05T03:45:00;10.80;;;6.43;;
3589;SDS011;1809;48.470;9.226;2022-07-05T03:47:26;5.53;;;5.03;;
3589;SDS011;1809;48.470;9.226;2022-07-05T03:49:53;4.93;;;4.73;;
3589;SDS011;1809;48.470;9.226;2022-07-05T03:52:19;4.80;;;4.40;;
3589;SDS011;1809;48.470;9.226;2022-07-05T03:54:44;5.40;;;4.97;;
3589;SDS011;1809;48.470;9.226;2022-07-05T03:57:10;11.03;;;6.30;;
3589;SDS011;1809;48.470;9.226;2022-07-05T03:59:37;7.00;;;6.30;;
3589;SDS011;1809;48.470;9.226;2022-07-05T04:02:06;5.43;;;4.97;;
3589;SDS011;1809;48.470;9.226;2022-07-05T04:04:32;8.03;;;5.00;;
3589;SDS011;1809;48.470;9.226;2022-07-05T04:07:01;4.20;;;3.90;;
3589;SDS011;1809;48.470;9.226;2022-07-05T04:09:27;4.03;;;3.57;;
3589;SDS011;1809;48.470;9.226;2022-07-05T04:11:56;4.20;;;3.83;;
3589;SDS011;1809;48.470;9.226;2022-07-05T04:14:21;3.80;;;3.43;;
3589;SDS011;1809;48.470;9.226;2022-07-05T04:16:47;3.67;;;3.40;;
3589;SDS011;1809;48.470;9.226;2022-07-05T04:19:16;5.70;;;3.50;;
3589;SDS011;1809;48.470;9.226;2022-07-05T04:21:41;3.40;;;3.20;;
3589;SDS011;1809;48.470;9.226;2022-07-05T04:24:07;3.10;;;2.90;;
3589;SDS011;1809;48.470;9.226;2022-07-05T04:26:33;2.97;;;2.73;;
3589;SDS011;1809;48.470;9.226;2022-07-05T04:28:59;3.40;;;3.07;;
3589;SDS011;1809;48.470;9.226;2022-07-05T04:31:24;2.97;;;2.77;;
3589;SDS011;1809;48.470;9.226;2022-07-05T04:33:50;4.17;;;3.00;;
3589;SDS011;1809;48.470;9.226;2022-07-05T04:36:16;2.80;;;2.70;;
3589;SDS011;1809;48.470;9.226;2022-07-05T04:38:41;3.50;;;3.20;;
3589;SDS011;1809;48.470;9.226;2022-07-05T04:41:07;3.50;;;2.77;;
3589;SDS011;1809;48.470;9.226;2022-07-05T04:43:35;3.20;;;3.10;;
3589;SDS011;1809;48.470;9.226;2022-07-05T04:46:04;3.57;;;2.73;;
3589;SDS011;1809;48.470;9.226;2022-07-05T04:48:30;2.60;;;2.50;;
3589;SDS011;1809;48.470;9.226;2022-07-05T04:50:58;5.73;;;2.57;;
3589;SDS011;1809;48.470;9.226;2022-07-05T04:53:27;2.80;;;2.20;;
3589;SDS011;1809;48.470;9.226;2022-07-05T04:55:55;5.27;;;2.10;;
3589;SDS011;1809;48.470;9.226;2022-07-05T04:58:23;3.40;;;2.00;;
3589;SDS011;1809;48.470;9.226;2022-07-05T05:00:49;2.70;;;2.50;;
3589;SDS011;1809;48.470;9.226;2022-07-05T05:03:15;2.50;;;2.40;;
3589;SDS011;1809;48.470;9.226;2022-07-05T05:05:40;2.80;;;2.70;;
3589;SDS011;1809;48.470;9.226;2022-07-05T05:08:06;2.37;;;2.23;;
3589;SDS011;1809;48.470;9.226;2022-07-05T05:10:31;9.20;;;2.60;;
3589;SDS011;1809;48.470;9.226;2022-07-05T05:13:00;2.97;;;2.57;;
3589;SDS011;1809;48.470;9.226;2022-07-05T05:15:35;2.50;;;2.40;;
3589;SDS011;1809;48.470;9.226;2022-07-05T05:18:01;3.20;;;3.00;;
3589;SDS011;1809;48.470;9.226;2022-07-05T05:20:27;2.40;;;2.30;;
3589;SDS011;1809;48.470;9.226;2022-07-05T05:22:52;5.00;;;1.97;;
3589;SDS011;1809;48.470;9.226;2022-07-05T05:25:18;2.67;;;2.57;;
3589;SDS011;1809;48.470;9.226;2022-07-05T05:27:48;2.03;;;1.93;;
3589;SDS011;1809;48.470;9.226;2022-07-05T05:30:18;2.80;;;2.60;;
3589;SDS011;1809;48.470;9.226;2022-07-05T05:32:44;2.60;;;2.50;;
3589;SDS011;1809;48.470;9.226;2022-07-05T05:35:09;3.03;;;2.43;;
3589;SDS011;1809;48.470;9.226;2022-07-05T05:37:51;2.23;;;2.13;;
3589;SDS011;1809;48.470;9.226;2022-07-05T05:40:18;4.70;;;1.77;;
3589;SDS011;1809;48.470;9.226;2022-07-05T05:42:44;2.37;;;2.17;;
3589;SDS011;1809;48.470;9.226;2022-07-05T05:45:09;3.47;;;2.10;;
3589;SDS011;1809;48.470;9.226;2022-07-05T05:47:45;3.60;;;2.63;;
3589;SDS011;1809;48.470;9.226;2022-07-05T05:50:17;3.07;;;2.77;;
3589;SDS011;1809;48.470;9.226;2022-07-05T05:52:44;2.80;;;2.60;;
3589;SDS011;1809;48.470;9.226;2022-07-05T05:55:09;6.60;;;2.50;;
3589;SDS011;1809;48.470;9.226;2022-07-05T05:57:34;3.53;;;3.23;;
3589;SDS011;1809;48.470;9.226;2022-07-05T06:00:02;2.37;;;2.17;;
3589;SDS011;1809;48.470;9.226;2022-07-05T06:02:28;4.70;;;3.40;;
3589;SDS011;1809;48.470;9.226;2022-07-05T06:04:54;4.10;;;3.70;;
3589;SDS011;1809;48.470;9.226;2022-07-05T06:07:19;10.30;;;3.20;;
3589;SDS011;1809;48.470;9.226;2022-07-05T06:09:44;2.63;;;2.40;;
3589;SDS011;1809;48.470;9.226;2022-07-05T06:12:10;5.77;;;2.50;;
3589;SDS011;1809;48.470;9.226;2022-07-05T06:14:35;3.23;;;2.80;;
3589;SDS011;1809;48.470;9.226;2022-07-05T06:17:00;2.90;;;2.77;;
3589;SDS011;1809;48.470;9.226;2022-07-05T06:19:25;1.80;;;1.70;;
3589;SDS011;1809;48.470;9.226;2022-07-05T06:21:51;3.77;;;2.03;;
3589;SDS011;1809;48.470;9.226;2022-07-05T06:24:16;3.53;;;1.97;;
3589;SDS011;1809;48.470;9.226;2022-07-05T06:26:41;5.83;;;2.60;;
3589;SDS011;1809;48.470;9.226;2022-07-05T06:29:07;3.70;;;2.00;;
3589;SDS011;1809;48.470;9.226;2022-07-05T06:31:32;2.00;;;1.90;;
3589;SDS011;1809;48.470;9.226;2022-07-05T06:33:57;2.23;;;2.13;;
3589;SDS011;1809;48.470;9.226;2022-07-05T06:36:23;4.73;;;1.97;;
3589;SDS011;1809;48.470;9.226;2022-07-05T06:38:48;2.03;;;1.93;;
3589;SDS011;1809;48.470;9.226;2022-07-05T06:41:13;2.13;;;2.03;;
3589;SDS011;1809;48.470;9.226;2022-07-05T06:43:39;5.60;;;2.30;;
3589;SDS011;1809;48.470;9.226;2022-07-05T06:46:04;2.33;;;2.23;;
3589;SDS011;1809;48.470;9.226;2022-07-05T06:48:30;2.63;;;2.30;;
3589;SDS011;1809;48.470;9.226;2022-07-05T06:50:55;2.60;;;2.50;;
3589;SDS011;1809;48.470;9.226;2022-07-05T06:53:21;1.83;;;1.73;;
3589;SDS011;1809;48.470;9.226;2022-07-05T06:55:46;2.30;;;1.93;;
3589;SDS011;1809;48.470;9.226;2022-07-05T06:58:12;2.90;;;2.70;;
3589;SDS011;1809;48.470;9.226;2022-07-05T07:00:37;2.90;;;1.60;;
3589;SDS011;1809;48.470;9.226;2022-07-05T07:03:06;4.53;;;2.20;;
3589;SDS011;1809;48.470;9.226;2022-07-05T07:05:32;2.67;;;2.47;;
3589;SDS011;1809;48.470;9.226;2022-07-05T07:07:57;3.13;;;1.93;;
3589;SDS011;1809;48.470;9.226;2022-07-05T07:10:41;2.90;;;2.80;;
3589;SDS011;1809;48.470;9.226;2022-07-05T07:13:07;3.20;;;2.17;;
3589;SDS011;1809;48.470;9.226;2022-07-05T07:15:32;2.90;;;2.60;;
3589;SDS011;1809;48.470;9.226;2022-07-05T07:18:02;1.83;;;1.73;;
3589;SDS011;1809;48.470;9.226;2022-07-05T07:20:28;2.30;;;2.20;;
3589;SDS011;1809;48.470;9.226;2022-07-05T07:22:54;1.80;;;1.70;;
3589;SDS011;1809;48.470;9.226;2022-07-05T07:25:19;1.70;;;1.60;;
3589;SDS011;1809;48.470;9.226;2022-07-05T07:27:46;2.10;;;2.00;;
3589;SDS011;1809;48.470;9.226;2022-07-05T07:30:13;2.70;;;1.70;;
3589;SDS011;1809;48.470;9.226;2022-07-05T07:32:40;1.97;;;1.87;;
3589;SDS011;1809;48.470;9.226;2022-07-05T07:35:07;2.20;;;2.10;;
3589;SDS011;1809;48.470;9.226;2022-07-05T07:37:33;2.53;;;2.17;;
3589;SDS011;1809;48.470;9.226;2022-07-05T07:39:59;2.90;;;1.77;;
3589;SDS011;1809;48.470;9.226;2022-07-05T07:42:26;2.20;;;2.10;;
3589;SDS011;1809;48.470;9.226;2022-07-05T07:44:51;3.40;;;2.13;;
3589;SDS011;1809;48.470;9.226;2022-07-05T07:47:16;3.90;;;1.97;;
3589;SDS011;1809;48.470;9.226;2022-07-05T07:49:42;2.00;;;1.90;;
3589;SDS011;1809;48.470;9.226;2022-07-05T07:52:07;2.50;;;2.27;;
3589;SDS011;1809;48.470;9.226;2022-07-05T07:54:32;6.63;;;1.73;;
3589;SDS011;1809;48.470;9.226;2022-07-05T07:56:58;2.13;;;2.13;;
3589;SDS011;1809;48.470;9.226;2022-07-05T07:59:24;3.13;;;1.80;;
3589;SDS011;1809;48.470;9.226;2022-07-05T08:01:50;2.43;;;2.20;;
3589;SDS011;1809;48.470;9.226;2022-07-05T08:04:15;2.43;;;2.23;;
3589;SDS011;1809;48.470;9.226;2022-07-05T08:06:41;2.27;;;2.17;;
3589;SDS011;1809;48.470;9.226;2022-07-05T08:09:08;4.30;;;2.20;;
3589;SDS011;1809;48.470;9.226;2022-07-05T08:11:33;3.33;;;2.40;;
3589;SDS011;1809;48.470;9.226;2022-07-05T08:13:58;3.47;;;2.40;;
3589;SDS011;1809;48.470;9.226;2022-07-05T08:16:24;4.70;;;2.27;;
3589;SDS011;1809;48.470;9.226;2022-07-05T08:18:49;5.23;;;2.33;;
3589;SDS011;1809;48.470;9.226;2022-07-05T08:21:33;8.30;;;2.57;;
3589;SDS011;1809;48.470;9.226;2022-07-05T08:24:07;2.17;;;2.07;;
3589;SDS011;1809;48.470;9.226;2022-07-05T08:26:34;3.50;;;3.20;;
3589;SDS011;1809;48.470;9.226;2022-07-05T08:29:01;3.53;;;3.00;;
3589;SDS011;1809;48.470;9.226;2022-07-05T08:31:28;5.73;;;4.40;;
3589;SDS011;1809;48.470;9.226;2022-07-05T08:33:54;6.30;;;2.70;;
3589;SDS011;1809;48.470;9.226;2022-07-05T08:36:20;3.87;;;2.60;;
3589;SDS011;1809;48.470;9.226;2022-07-05T08:38:45;4.37;;;2.60;;
3589;SDS011;1809;48.470;9.226;2022-07-05T08:41:11;2.93;;;2.60;;
3589;SDS011;1809;48.470;9.226;2022-07-05T08:43:39;4.20;;;2.93;;
3589;SDS011;1809;48.470;9.226;2022-07-05T08:46:07;3.00;;;2.80;;
3589;SDS011;1809;48.470;9.226;2022-07-05T08:48:38;15.57;;;4.30;;
3589;SDS011;1809;48.470;9.226;2022-07-05T08:51:12;6.53;;;2.60;;
3589;SDS011;1809;48.470;9.226;2022-07-05T08:53:39;2.50;;;2.30;;
3589;SDS011;1809;48.470;9.226;2022-07-05T08:56:05;2.63;;;2.53;;
3589;SDS011;1809;48.470;9.226;2022-07-05T08:58:33;3.27;;;2.63;;
3589;SDS011;1809;48.470;9.226;2022-07-05T09:00:58;10.33;;;2.80;;
3589;SDS011;1809;48.470;9.226;2022-07-05T09:03:25;4.67;;;2.70;;
3589;SDS011;1809;48.470;9.226;2022-07-05T09:06:03;2.90;;;2.70;;
3589;SDS011;1809;48.470;9.226;2022-07-05T09:08:31;3.93;;;2.80;;
3589;SDS011;1809;48.470;9.226;2022-07-05T09:11:04;5.60;;;2.70;;
3589;SDS011;1809;48.470;9.226;2022-07-05T09:13:38;2.70;;;2.60;;
3589;SDS011;1809;48.470;9.226;2022-07-05T09:16:05;12.30;;;2.40;;
3589;SDS011;1809;48.470;9.226;2022-07-05T09:18:38;6.13;;;2.90;;
3589;SDS011;1809;48.470;9.226;2022-07-05T09:21:14;8.30;;;2.70;;
3589;SDS011;1809;48.470;9.226;2022-07-05T09:23:44;3.57;;;2.93;;
3589;SDS011;1809;48.470;9.226;2022-07-05T09:26:18;5.77;;;2.33;;
3589;SDS011;1809;48.470;9.226;2022-07-05T09:28:56;2.40;;;2.30;;
3589;SDS011;1809;48.470;9.226;2022-07-05T09:31:29;4.30;;;2.17;;
3589;SDS011;1809;48.470;9.226;2022-07-05T09:34:05;2.50;;;2.10;;
3589;SDS011;1809;48.470;9.226;2022-07-05T09:47:21;2.97;;;2.37;;
3589;SDS011;1809;48.470;9.226;2022-07-05T09:49:51;2.43;;;2.30;;
3589;SDS011;1809;48.470;9.226;2022-07-05T09:52:33;3.67;;;2.30;;
3589;SDS011;1809;48.470;9.226;2022-07-05T09:57:28;3.53;;;2.50;;
3589;SDS011;1809;48.470;9.226;2022-07-05T10:00:03;2.93;;;2.70;;
3589;SDS011;1809;48.470;9.226;2022-07-05T10:02:39;4.83;;;2.73;;
3589;SDS011;1809;48.470;9.226;2022-07-05T10:05:27;8.13;;;2.13;;
3589;SDS011;1809;48.470;9.226;2022-07-05T10:07:57;2.90;;;2.73;;
3589;SDS011;1809;48.470;9.226;2022-07-05T10:10:28;3.27;;;2.20;;
3589;SDS011;1809;48.470;9.226;2022-07-05T10:12:58;1.90;;;1.77;;
3589;SDS011;1809;48.470;9.226;2022-07-05T10:15:28;5.30;;;2.03;;
3589;SDS011;1809;48.470;9.226;2022-07-05T10:18:08;5.17;;;1.50;;
3589;SDS011;1809;48.470;9.226;2022-07-05T10:23:05;1.83;;;1.73;;
3589;SDS011;1809;48.470;9.226;2022-07-05T10:25:32;1.23;;;1.23;;
3589;SDS011;1809;48.470;9.226;2022-07-05T10:28:00;2.23;;;2.13;;
3589;SDS011;1809;48.470;9.226;2022-07-05T10:30:26;1.60;;;1.50;;
3589;SDS011;1809;48.470;9.226;2022-07-05T10:32:51;1.57;;;1.57;;
3589;SDS011;1809;48.470;9.226;2022-07-05T10:35:17;5.87;;;1.53;;
3589;SDS011;1809;48.470;9.226;2022-07-05T10:37:44;3.10;;;2.00;;
3589;SDS011;1809;48.470;9.226;2022-07-05T10:40:11;1.80;;;1.80;;
3589;SDS011;1809;48.470;9.226;2022-07-05T10:42:38;3.13;;;1.63;;
3589;SDS011;1809;48.470;9.226;2022-07-05T10:48:14;2.60;;;2.30;;
3589;SDS011;1809;48.470;9.226;2022-07-05T10:51:01;1.93;;;1.83;;
3589;SDS011;1809;48.470;9.226;2022-07-05T11:03:52;1.90;;;1.77;;
3589;SDS011;1809;48.470;9.226;2022-07-05T11:06:29;1.60;;;1.60;;
3589;SDS011;1809;48.470;9.226;2022-07-05T11:11:29;3.60;;;1.40;;
3589;SDS011;1809;48.470;9.226;2022-07-05T11:13:56;3.53;;;1.40;;
3589;SDS011;1809;48.470;9.226;2022-07-05T11:18:54;4.53;;;1.67;;
3589;SDS011;1809;48.470;9.226;2022-07-05T11:21:36;2.70;;;2.60;;
3589;SDS011;1809;48.470;9.226;2022-07-05T11:26:49;2.20;;;2.00;;
3589;SDS011;1809;48.470;9.226;2022-07-05T11:32:16;2.30;;;1.97;;
3589;SDS011;1809;48.470;9.226;2022-07-05T11:34:44;2.53;;;1.70;;
3589;SDS011;1809;48.470;9.226;2022-07-05T11:39:39;1.73;;;1.63;;
3589;SDS011;1809;48.470;9.226;2022-07-05T11:42:05;2.27;;;2.10;;
3589;SDS011;1809;48.470;9.226;2022-07-05T11:44:33;1.93;;;1.60;;
3589;SDS011;1809;48.470;9.226;2022-07-05T11:46:59;2.20;;;2.00;;
3589;SDS011;1809;48.470;9.226;2022-07-05T11:49:26;11.97;;;2.10;;
3589;SDS011;1809;48.470;9.226;2022-07-05T11:52:01;2.47;;;1.77;;
3589;SDS011;1809;48.470;9.226;2022-07-05T11:54:29;2.23;;;2.10;;
3589;SDS011;1809;48.470;9.226;2022-07-05T11:56:55;4.10;;;2.40;;
3589;SDS011;1809;48.470;9.226;2022-07-05T11:59:22;3.90;;;1.77;;
3589;SDS011;1809;48.470;9.226;2022-07-05T12:01:48;5.13;;;1.50;;
3589;SDS011;1809;48.470;9.226;2022-07-05T12:04:24;1.40;;;1.40;;
3589;SDS011;1809;48.470;9.226;2022-07-05T12:06:51;1.80;;;1.70;;
3589;SDS011;1809;48.470;9.226;2022-07-05T12:09:26;4.30;;;2.17;;
3589;SDS011;1809;48.470;9.226;2022-07-05T12:12:16;2.33;;;1.80;;
3589;SDS011;1809;48.470;9.226;2022-07-05T12:15:01;2.70;;;1.10;;
3589;SDS011;1809;48.470;9.226;2022-07-05T12:17:27;5.03;;;1.60;;
3589;SDS011;1809;48.470;9.226;2022-07-05T12:19:53;1.83;;;1.67;;
3589;SDS011;1809;48.470;9.226;2022-07-05T12:22:52;1.83;;;1.73;;
3589;SDS011;1809;48.470;9.226;2022-07-05T12:25:15;3.37;;;1.50;;
3589;SDS011;1809;48.470;9.226;2022-07-05T12:27:42;4.63;;;2.23;;
3589;SDS011;1809;48.470;9.226;2022-07-05T12:30:10;3.23;;;1.90;;
3589;SDS011;1809;48.470;9.226;2022-07-05T12:35:28;4.00;;;1.60;;
3589;SDS011;1809;48.470;9.226;2022-07-05T12:37:55;2.10;;;2.00;;
3589;SDS011;1809;48.470;9.226;2022-07-05T12:40:21;2.00;;;1.77;;
3589;SDS011;1809;48.470;9.226;2022-07-05T12:42:47;6.57;;;1.97;;
3589;SDS011;1809;48.470;9.226;2022-07-05T12:45:31;2.50;;;1.60;;
3589;SDS011;1809;48.470;9.226;2022-07-05T12:47:58;3.67;;;1.50;;
3589;SDS011;1809;48.470;9.226;2022-07-05T12:50:26;1.57;;;1.57;;
3589;SDS011;1809;48.470;9.226;2022-07-05T12:53:03;2.50;;;1.57;;
3589;SDS011;1809;48.470;9.226;2022-07-05T12:55:49;4.17;;;1.90;;
3589;SDS011;1809;48.470;9.226;2022-07-05T12:58:44;2.67;;;1.67;;
3589;SDS011;1809;48.470;9.226;2022-07-05T13:14:31;1.30;;;1.30;;
3589;SDS011;1809;48.470;9.226;2022-07-05T13:16:57;2.50;;;1.40;;
3589;SDS011;1809;48.470;9.226;2022-07-05T13:19:22;1.90;;;1.80;;
3589;SDS011;1809;48.470;9.226;2022-07-05T13:21:47;4.90;;;1.80;;
3589;SDS011;1809;48.470;9.226;2022-07-05T13:24:13;2.43;;;1.70;;
3589;SDS011;1809;48.470;9.226;2022-07-05T13:26:38;4.23;;;2.03;;
3589;SDS011;1809;48.470;9.226;2022-07-05T13:29:03;2.30;;;1.87;;
3589;SDS011;1809;48.470;9.226;2022-07-05T13:31:29;9.00;;;2.20;;
3589;SDS011;1809;48.470;9.226;2022-07-05T13:33:55;2.80;;;1.80;;
3589;SDS011;1809;48.470;9.226;2022-07-05T13:36:21;2.43;;;2.33;;
3589;SDS011;1809;48.470;9.226;2022-07-05T13:38:47;6.40;;;2.20;;
3589;SDS011;1809;48.470;9.226;2022-07-05T13:41:13;1.87;;;1.77;;
3589;SDS011;1809;48.470;9.226;2022-07-05T13:43:38;4.83;;;1.70;;
3589;SDS011;1809;48.470;9.226;2022-07-05T13:46:04;2.00;;;1.67;;
3589;SDS011;1809;48.470;9.226;2022-07-05T13:48:30;2.20;;;2.10;;
3589;SDS011;1809;48.470;9.226;2022-07-05T13:50:55;1.93;;;1.83;;
3589;SDS011;1809;48.470;9.226;2022-07-05T13:53:20;1.60;;;1.50;;
3589;SDS011;1809;48.470;9.226;2022-07-05T13:55:46;1.83;;;1.73;;
3589;SDS011;1809;48.470;9.226;2022-07-05T13:58:11;6.60;;;1.90;;
3589;SDS011;1809;48.470;9.226;2022-07-05T14:00:37;1.53;;;1.37;;
3589;SDS011;1809;48.470;9.226;2022-07-05T14:03:02;2.00;;;1.60;;
3589;SDS011;1809;48.470;9.226;2022-07-05T14:05:27;2.20;;;2.00;;
3589;SDS011;1809;48.470;9.226;2022-07-05T14:07:52;5.70;;;1.80;;
3589;SDS011;1809;48.470;9.226;2022-07-05T14:10:18;9.03;;;1.77;;
3589;SDS011;1809;48.470;9.226;2022-07-05T14:12:43;4.97;;;1.67;;
3589;SDS011;1809;48.470;9.226;2022-07-05T14:15:09;1.77;;;1.57;;
3589;SDS011;1809;48.470;9.226;2022-07-05T14:17:34;1.93;;;1.60;;
3589;SDS011;1809;48.470;9.226;2022-07-05T14:20:00;3.67;;;1.43;;
3589;SDS011;1809;48.470;9.226;2022-07-05T14:22:25;1.67;;;1.57;;
3589;SDS011;1809;48.470;9.226;2022-07-05T14:24:51;6.67;;;1.47;;
3589;SDS011;1809;48.470;9.226;2022-07-05T14:27:16;2.10;;;1.63;;
3589;SDS011;1809;48.470;9.226;2022-07-05T14:29:41;7.10;;;1.70;;
3589;SDS011;1809;48.470;9.226;2022-07-05T14:32:07;8.63;;;1.80;;
3589;SDS011;1809;48.470;9.226;2022-07-05T14:34:33;3.60;;;1.70;;
3589;SDS011;1809;48.470;9.226;2022-07-05T14:36:59;2.20;;;1.90;;
3589;SDS011;1809;48.470;9.226;2022-07-05T14:39:24;1.30;;;1.20;;
3589;SDS011;1809;48.470;9.226;2022-07-05T14:41:50;2.87;;;1.63;;
3589;SDS011;1809;48.470;9.226;2022-07-05T14:44:15;1.40;;;1.30;;
3589;SDS011;1809;48.470;9.226;2022-07-05T14:46:41;4.13;;;1.50;;
3589;SDS011;1809;48.470;9.226;2022-07-05T14:49:06;7.30;;;1.40;;
3589;SDS011;1809;48.470;9.226;2022-07-05T14:51:32;2.20;;;2.00;;
3589;SDS011;1809;48.470;9.226;2022-07-05T14:53:57;1.77;;;1.67;;
3589;SDS011;1809;48.470;9.226;2022-07-05T14:56:22;2.10;;;2.00;;
3589;SDS011;1809;48.470;9.226;2022-07-05T14:58:48;2.00;;;1.90;;
3589;SDS011;1809;48.470;9.226;2022-07-05T15:01:14;7.27;;;1.70;;
3589;SDS011;1809;48.470;9.226;2022-07-05T15:03:40;6.00;;;1.90;;
3589;SDS011;1809;48.470;9.226;2022-07-05T15:06:06;1.97;;;1.80;;
3589;SDS011;1809;48.470;9.226;2022-07-05T15:08:31;5.53;;;2.20;;
3589;SDS011;1809;48.470;9.226;2022-07-05T15:10:57;1.77;;;1.60;;
3589;SDS011;1809;48.470;9.226;2022-07-05T15:13:24;1.80;;;1.70;;
3589;SDS011;1809;48.470;9.226;2022-07-05T15:15:50;1.67;;;1.57;;
3589;SDS011;1809;48.470;9.226;2022-07-05T15:18:16;6.67;;;2.00;;
3589;SDS011;1809;48.470;9.226;2022-07-05T15:20:41;2.60;;;2.23;;
3589;SDS011;1809;48.470;9.226;2022-07-05T15:23:06;3.80;;;2.23;;
3589;SDS011;1809;48.470;9.226;2022-07-05T15:25:32;3.73;;;2.10;;
3589;SDS011;1809;48.470;9.226;2022-07-05T15:27:57;1.77;;;1.63;;
3589;SDS011;1809;48.470;9.226;2022-07-05T15:30:23;2.00;;;1.63;;
3589;SDS011;1809;48.470;9.226;2022-07-05T15:32:48;1.70;;;1.60;;
3589;SDS011;1809;48.470;9.226;2022-07-05T15:35:14;2.47;;;2.37;;
3589;SDS011;1809;48.470;9.226;2022-07-05T15:37:42;2.13;;;1.50;;
3589;SDS011;1809;48.470;9.226;2022-07-05T15:40:08;2.37;;;2.00;;
3589;SDS011;1809;48.470;9.226;2022-07-05T15:42:34;2.10;;;1.70;;
3589;SDS011;1809;48.470;9.226;2022-07-05T15:44:59;2.60;;;1.70;;
3589;SDS011;1809;48.470;9.226;2022-07-05T15:47:25;1.73;;;1.63;;
3589;SDS011;1809;48.470;9.226;2022-07-05T15:49:52;2.80;;;2.33;;
3589;SDS011;1809;48.470;9.226;2022-07-05T15:52:18;2.47;;;1.90;;
3589;SDS011;1809;48.470;9.226;2022-07-05T15:54:43;5.47;;;2.03;;
3589;SDS011;1809;48.470;9.226;2022-07-05T15:57:09;1.83;;;1.73;;
3589;SDS011;1809;48.470;9.226;2022-07-05T15:59:34;8.53;;;2.30;;
3589;SDS011;1809;48.470;9.226;2022-07-05T16:02:00;2.20;;;2.10;;
3589;SDS011;1809;48.470;9.226;2022-07-05T16:04:25;2.50;;;1.63;;
3589;SDS011;1809;48.470;9.226;2022-07-05T16:06:54;4.50;;;2.70;;
3589;SDS011;1809;48.470;9.226;2022-07-05T16:09:21;8.30;;;2.23;;
3589;SDS011;1809;48.470;9.226;2022-07-05T16:11:46;2.17;;;2.03;;
3589;SDS011;1809;48.470;9.226;2022-07-05T16:14:11;1.90;;;1.80;;
3589;SDS011;1809;48.470;9.226;2022-07-05T16:16:37;2.30;;;2.20;;